createdAt,value
2022-10-14T00:01:24.972Z,100678.16
2022-10-14T00:03:52.088Z,100663.75
2022-10-14T00:06:23.819Z,100627.59
2022-10-14T00:08:50.767Z,100543.72
2022-10-14T00:11:25.606Z,100699.28
2022-10-14T00:13:57.603Z,100662.03
2022-10-14T00:16:32.595Z,100685.09
2022-10-14T00:18:59.646Z,100614.81
2022-10-14T00:21:29.581Z,100652.22
2022-10-14T00:24:01.637Z,100707.72
2022-10-14T00:26:36.603Z,100687.56
2022-10-14T00:29:06.288Z,100703.19
2022-10-14T00:31:33.932Z,100704.59
2022-10-14T00:34:05.643Z,100626.94
2022-10-14T00:36:34.632Z,100697.09
2022-10-14T00:39:01.430Z,100643.19
2022-10-14T00:41:31.321Z,100695.41
2022-10-14T00:44:03.370Z,100698.84
2022-10-14T00:46:34.588Z,100636.03
2022-10-14T00:49:09.140Z,100703.94
2022-10-14T00:51:37.383Z,100619.88
2022-10-14T00:54:04.467Z,100568.00
2022-10-14T00:56:31.228Z,100462.16
2022-10-14T00:59:00.617Z,100602.44
2022-10-14T01:01:27.200Z,100686.47
2022-10-14T01:03:59.256Z,100637.66
2022-10-14T01:06:53.067Z,100687.25
2022-10-14T01:09:38.956Z,100641.03
2022-10-14T01:12:29.437Z,100692.41
2022-10-14T01:15:21.579Z,100684.59
2022-10-14T01:18:19.281Z,100512.66
2022-10-14T01:21:14.965Z,100692.44
2022-10-14T01:24:05.238Z,100681.31
2022-10-14T01:26:48.893Z,100682.38
2022-10-14T01:29:24.716Z,100685.91
2022-10-14T01:32:00.524Z,100659.38
2022-10-14T01:34:34.289Z,100681.59
2022-10-14T01:37:06.120Z,100583.94
2022-10-14T01:39:41.616Z,100677.31
2022-10-14T01:42:11.769Z,100654.19
2022-10-14T01:44:44.658Z,100669.53
2022-10-14T01:47:14.382Z,100592.53
2022-10-14T01:49:46.961Z,100515.63
2022-10-14T01:52:22.642Z,100664.19
2022-10-14T01:54:54.328Z,100603.03
2022-10-14T01:57:25.064Z,100665.00
2022-10-14T01:59:53.338Z,100590.66
2022-10-14T02:02:20.822Z,100474.13
2022-10-14T02:04:50.488Z,100517.50
2022-10-14T02:07:19.698Z,100667.16
2022-10-14T02:10:04.006Z,100674.38
2022-10-14T02:12:52.182Z,100671.31
2022-10-14T02:15:32.483Z,100669.06
2022-10-14T02:18:17.793Z,100666.50
2022-10-14T02:21:05.852Z,100662.34
2022-10-14T02:23:49.138Z,100455.03
2022-10-14T02:26:20.749Z,100640.97
2022-10-14T02:28:51.289Z,100632.19
2022-10-14T02:31:20.290Z,100657.78
2022-10-14T02:33:53.311Z,100665.56
2022-10-14T02:36:23.636Z,100503.63
2022-10-14T02:38:50.701Z,100665.50
2022-10-14T02:41:19.903Z,100633.81
2022-10-14T02:43:54.315Z,100609.53
2022-10-14T02:46:23.705Z,100592.66
2022-10-14T02:48:52.836Z,100667.72
2022-10-14T02:51:22.271Z,100660.00
2022-10-14T02:53:51.309Z,100660.00
2022-10-14T02:56:18.443Z,100660.94
2022-10-14T02:58:47.680Z,100587.84
2022-10-14T03:01:19.257Z,100661.91
2022-10-14T03:03:48.930Z,100655.91
2022-10-14T03:06:19.480Z,100657.66
2022-10-14T03:08:46.904Z,100661.91
2022-10-14T03:11:16.310Z,100668.84
2022-10-14T03:13:46.580Z,100653.94
2022-10-14T03:16:15.875Z,100560.22
2022-10-14T03:18:44.657Z,100540.72
2022-10-14T03:21:20.799Z,100537.22
2022-10-14T03:23:48.575Z,100663.59
2022-10-14T03:26:15.306Z,100559.97
2022-10-14T03:28:46.307Z,100661.72
2022-10-14T03:31:28.515Z,100510.47
2022-10-14T03:34:24.334Z,100667.00
2022-10-14T03:37:00.543Z,100651.16
2022-10-14T03:39:27.478Z,100565.53
2022-10-14T03:42:00.784Z,100544.41
2022-10-14T03:44:34.167Z,100571.09
2022-10-14T03:47:11.777Z,100625.63
2022-10-14T03:49:38.625Z,100567.53
2022-10-14T03:52:15.901Z,100646.44
2022-10-14T03:54:44.088Z,100629.53
2022-10-14T03:57:16.526Z,100655.34
2022-10-14T03:59:51.944Z,100624.66
2022-10-14T04:02:19.991Z,100637.50
2022-10-14T04:04:47.635Z,100559.56
2022-10-14T04:07:17.147Z,100544.88
2022-10-14T04:09:52.811Z,100536.41
2022-10-14T04:12:22.686Z,100501.00
2022-10-14T04:15:00.213Z,100587.91
2022-10-14T04:17:33.074Z,100616.22
2022-10-14T04:20:08.296Z,100628.66
2022-10-14T04:22:36.425Z,100627.72
2022-10-14T04:25:05.860Z,100491.50
2022-10-14T04:27:35.316Z,100632.63
2022-10-14T04:30:11.874Z,100453.25
2022-10-14T04:32:51.264Z,100514.88
2022-10-14T04:35:18.927Z,100555.56
2022-10-14T04:37:51.394Z,100572.25
2022-10-14T04:40:26.502Z,100565.19
2022-10-14T04:42:58.629Z,100467.97
2022-10-14T04:45:39.921Z,100621.66
2022-10-14T04:48:19.163Z,100571.44
2022-10-14T04:50:47.096Z,100545.22
2022-10-14T04:53:27.784Z,100447.63
2022-10-14T04:56:07.286Z,100594.28
2022-10-14T04:58:41.159Z,100542.34
2022-10-14T05:01:10.893Z,100639.59
2022-10-14T05:03:40.128Z,100514.97
2022-10-14T05:06:06.868Z,100535.53
2022-10-14T05:08:39.601Z,100585.94
2022-10-14T05:11:09.504Z,100625.41
2022-10-14T05:13:42.364Z,100567.00
2022-10-14T05:16:13.943Z,100559.50
2022-10-14T05:18:43.186Z,100630.88
2022-10-14T05:21:12.164Z,100630.88
2022-10-14T05:23:57.709Z,100576.63
2022-10-14T05:26:26.657Z,100521.50
2022-10-14T05:28:54.831Z,100617.03
2022-10-14T05:31:21.847Z,100613.63
2022-10-14T05:34:03.465Z,100643.94
2022-10-14T05:36:30.196Z,100609.72
2022-10-14T05:38:58.774Z,100601.94
2022-10-14T05:41:29.953Z,100632.34
2022-10-14T05:43:56.801Z,100639.13
2022-10-14T05:46:23.645Z,100610.78
2022-10-14T05:48:57.375Z,100584.25
2022-10-14T05:51:29.628Z,100598.63
2022-10-14T05:54:05.360Z,100611.56
2022-10-14T05:56:32.681Z,100632.34
2022-10-14T05:59:01.609Z,100567.78
2022-10-14T06:01:34.575Z,100656.34
2022-10-14T06:04:02.205Z,100566.41
2022-10-14T06:06:29.182Z,100584.00
2022-10-14T06:08:58.225Z,100662.72
2022-10-14T06:11:25.203Z,100589.56
2022-10-14T06:13:52.453Z,100649.84
2022-10-14T06:16:23.871Z,100660.81
2022-10-14T06:18:54.240Z,100665.38
2022-10-14T06:21:22.168Z,100596.69
2022-10-14T06:23:48.945Z,100669.16
2022-10-14T06:26:15.693Z,100649.94
2022-10-14T06:28:42.462Z,100616.28
2022-10-14T06:31:09.505Z,100597.78
2022-10-14T06:33:38.995Z,100627.66
2022-10-14T06:36:07.002Z,100677.72
2022-10-14T06:38:33.692Z,100616.88
2022-10-14T06:41:00.456Z,100674.34
2022-10-14T06:43:27.448Z,100627.56
2022-10-14T06:45:59.674Z,100647.19
2022-10-14T06:48:29.067Z,100666.63
2022-10-14T06:51:02.903Z,100662.03
2022-10-14T06:53:30.776Z,100594.19
2022-10-14T06:56:02.004Z,100627.09
2022-10-14T06:58:31.507Z,100657.19
2022-10-14T07:01:04.759Z,100686.41
2022-10-14T07:03:31.888Z,100677.88
2022-10-14T07:05:58.594Z,100599.41
2022-10-14T07:08:25.365Z,100621.56
2022-10-14T07:10:52.247Z,100565.16
2022-10-14T07:13:21.209Z,100695.72
2022-10-14T07:15:52.000Z,100691.41
2022-10-14T07:18:19.398Z,100678.47
2022-10-14T07:20:48.343Z,100679.66
2022-10-14T07:23:15.287Z,100573.16
2022-10-14T07:25:42.010Z,100655.44
2022-10-14T07:28:14.194Z,100515.47
2022-10-14T07:30:44.136Z,100678.09
2022-10-14T07:33:10.902Z,100654.22
2022-10-14T07:35:39.025Z,100622.97
2022-10-14T07:38:08.521Z,100678.88
2022-10-14T07:40:35.427Z,100683.47
2022-10-14T07:43:02.153Z,100645.72
2022-10-14T07:45:35.477Z,100652.88
2022-10-14T07:48:02.390Z,100674.00
2022-10-14T07:50:29.783Z,100579.00
2022-10-14T07:53:00.903Z,100663.28
2022-10-14T07:55:28.049Z,100478.59
2022-10-14T07:57:57.478Z,100619.81
2022-10-14T08:00:24.195Z,100619.88
2022-10-14T08:02:51.153Z,100678.38
2022-10-14T08:05:37.069Z,100559.06
2022-10-14T08:08:07.904Z,100652.91
2022-10-14T08:10:34.969Z,100372.19
2022-10-14T08:13:04.436Z,100643.81
2022-10-14T08:15:40.412Z,100597.56
2022-10-14T08:18:12.813Z,100492.41
2022-10-14T08:20:39.521Z,100475.47
2022-10-14T08:23:06.196Z,100500.22
2022-10-14T08:25:37.665Z,100471.75
2022-10-14T08:28:06.576Z,100635.91
2022-10-14T08:30:33.435Z,100431.28
2022-10-14T08:33:06.187Z,100578.56
2022-10-14T08:35:32.882Z,100580.50
2022-10-14T08:38:01.326Z,100502.13
2022-10-14T08:40:29.059Z,100559.59
2022-10-14T08:42:55.780Z,100615.19
2022-10-14T08:45:30.151Z,100622.28
2022-10-14T08:48:00.123Z,100522.16
2022-10-14T08:51:03.654Z,100627.56
2022-10-14T08:53:34.859Z,100350.66
2022-10-14T08:56:02.625Z,100586.09
2022-10-14T08:58:54.573Z,100635.50
2022-10-14T09:01:37.460Z,100625.97
2022-10-14T09:04:08.470Z,100635.69
2022-10-14T09:06:36.829Z,100587.38
2022-10-14T09:09:32.810Z,100578.78
2022-10-14T09:12:03.939Z,100506.78
2022-10-14T09:14:34.581Z,100445.38
2022-10-14T09:19:42.792Z,100423.47
2022-10-14T09:22:16.134Z,100620.25
2022-10-14T09:24:48.312Z,100524.44
2022-10-14T09:27:22.139Z,100442.06
2022-10-14T09:30:00.709Z,100410.56
2022-10-14T09:32:28.914Z,100537.97
2022-10-14T09:35:01.405Z,100633.72
2022-10-14T09:37:28.250Z,100617.94
2022-10-14T09:40:01.541Z,100624.09
2022-10-14T09:42:36.844Z,100619.81
2022-10-14T09:45:23.724Z,100592.63
2022-10-14T09:48:07.537Z,100496.09
2022-10-14T09:50:43.605Z,100571.59
2022-10-14T09:53:21.278Z,100610.16
2022-10-14T09:55:52.268Z,100547.91
2022-10-14T09:58:29.090Z,100440.03
2022-10-14T10:00:58.170Z,100342.75
2022-10-14T10:03:39.853Z,100436.50
2022-10-14T10:06:15.026Z,100612.69
2022-10-14T10:08:54.002Z,100609.13
2022-10-14T10:11:40.103Z,100394.38
2022-10-14T10:14:26.652Z,100600.25
2022-10-14T10:17:08.695Z,100603.66
2022-10-14T10:19:39.615Z,100608.81
2022-10-14T10:22:22.746Z,100596.31
2022-10-14T10:25:12.515Z,100596.34
2022-10-14T10:27:49.608Z,100488.53
2022-10-14T10:30:22.082Z,100591.63
2022-10-14T10:33:07.294Z,100582.59
2022-10-14T10:36:06.529Z,100537.75
2022-10-14T10:39:24.719Z,100576.91
2022-10-14T10:42:12.855Z,100575.06
2022-10-14T10:45:16.078Z,100565.09
2022-10-14T10:47:45.901Z,100569.09
2022-10-14T10:50:30.739Z,100559.13
2022-10-14T10:53:11.601Z,100535.16
2022-10-14T10:55:44.545Z,100562.91
2022-10-14T10:58:34.412Z,100512.09
2022-10-14T11:01:16.663Z,100560.56
2022-10-14T11:04:03.202Z,100342.25
2022-10-14T11:06:54.503Z,100015.69
2022-10-14T11:10:14.982Z,100547.75
2022-10-14T11:13:02.086Z,100520.13
2022-10-14T11:15:47.325Z,100554.41
2022-10-14T11:18:56.813Z,100101.28
2022-10-14T11:21:53.658Z,100558.59
2022-10-14T11:24:47.529Z,100539.97
2022-10-14T11:27:22.354Z,100446.31
2022-10-14T11:30:18.904Z,100524.94
2022-10-14T11:33:10.467Z,100528.41
2022-10-14T11:35:55.851Z,100523.38
2022-10-14T11:38:49.986Z,100525.97
2022-10-14T11:41:40.429Z,100522.13
2022-10-14T11:44:20.230Z,100521.19
2022-10-14T11:46:51.991Z,100462.09
2022-10-14T11:49:26.998Z,100478.84
2022-10-14T11:52:20.199Z,100484.22
2022-10-14T11:55:23.483Z,100509.91
2022-10-14T11:57:56.885Z,100484.84
2022-10-14T12:03:09.342Z,100435.00
2022-10-14T12:05:51.452Z,100507.88
2022-10-14T12:08:35.722Z,100470.25
2022-10-14T12:11:07.811Z,100502.38
2022-10-14T12:13:47.614Z,100490.28
2022-10-14T12:16:18.351Z,100382.03
2022-10-14T12:18:52.887Z,100487.94
2022-10-14T12:21:32.499Z,100113.28
2022-10-14T12:24:14.544Z,100469.84
2022-10-14T12:26:47.421Z,100491.44
2022-10-14T12:29:22.183Z,100483.06
2022-10-14T12:32:05.616Z,100452.72
2022-10-14T12:34:42.752Z,100426.97
2022-10-14T12:37:38.183Z,100474.69
2022-10-14T12:40:07.972Z,100475.47
2022-10-14T12:42:59.020Z,100455.44
2022-10-14T12:45:33.392Z,100457.88
2022-10-14T12:48:19.368Z,100466.19
2022-10-14T12:50:51.731Z,100338.47
2022-10-14T12:53:25.431Z,100471.03
2022-10-14T12:56:03.339Z,100363.41
2022-10-14T12:58:41.173Z,100465.69
2022-10-14T13:01:20.087Z,100471.03
2022-10-14T13:04:19.920Z,100459.69
2022-10-14T13:07:35.501Z,100431.91
2022-10-14T13:10:20.739Z,100344.41
2022-10-14T13:12:50.378Z,100488.91
2022-10-14T13:15:37.924Z,100451.72
2022-10-14T13:18:31.264Z,100457.75
2022-10-14T13:21:01.099Z,100313.59
2022-10-14T13:23:33.546Z,100461.66
2022-10-14T13:26:17.541Z,100451.22
2022-10-14T13:29:02.963Z,100452.53
2022-10-14T13:31:40.974Z,100279.63
2022-10-14T13:34:32.007Z,100454.94
2022-10-14T13:37:26.716Z,100260.66
2022-10-14T13:39:53.924Z,100433.19
2022-10-14T13:42:36.095Z,100302.50
2022-10-14T13:45:10.566Z,100433.66
2022-10-14T13:47:37.380Z,100350.03
2022-10-14T13:50:15.620Z,100397.03
2022-10-14T13:52:54.508Z,100328.25
2022-10-14T13:55:23.801Z,100412.72
2022-10-14T13:58:16.996Z,100394.00
2022-10-14T14:00:58.912Z,100095.50
2022-10-14T14:03:42.201Z,100448.13
2022-10-14T14:06:18.157Z,100430.66
2022-10-14T14:09:05.065Z,100309.03
2022-10-14T14:11:33.757Z,99861.56
2022-10-14T14:14:10.111Z,100431.34
2022-10-14T14:16:41.686Z,100235.56
2022-10-14T14:19:21.939Z,100406.47
2022-10-14T14:21:51.204Z,100422.13
2022-10-14T14:24:25.308Z,100078.44
2022-10-14T14:26:55.514Z,100429.41
2022-10-14T14:29:28.366Z,100344.19
2022-10-14T14:32:11.791Z,100428.38
2022-10-14T14:34:39.983Z,100247.13
2022-10-14T14:40:06.099Z,100386.44
2022-10-14T14:42:40.632Z,100340.63
2022-10-14T14:45:16.894Z,100127.41
2022-10-14T14:47:44.178Z,100373.66
2022-10-14T14:50:30.145Z,100334.47
2022-10-14T14:53:11.713Z,100428.41
2022-10-14T14:55:44.384Z,100392.31
2022-10-14T14:58:19.999Z,100424.94
2022-10-14T15:00:51.643Z,100423.25
2022-10-14T15:03:20.714Z,100433.97
2022-10-14T15:05:57.343Z,100182.28
2022-10-14T15:08:32.579Z,100315.03
2022-10-14T15:11:00.407Z,100349.22
2022-10-14T15:13:38.083Z,100420.09
2022-10-14T15:16:07.586Z,100421.72
2022-10-14T15:18:37.475Z,100244.22
2022-10-14T15:21:15.856Z,100418.22
2022-10-14T15:23:48.538Z,100415.50
2022-10-14T15:26:31.323Z,100415.63
2022-10-14T15:32:16.509Z,100301.38
2022-10-14T15:34:44.206Z,100332.94
2022-10-14T15:37:13.148Z,100416.19
2022-10-14T15:39:40.113Z,100422.50
2022-10-14T15:42:12.179Z,100335.16
2022-10-14T15:44:38.845Z,100379.88
2022-10-14T15:47:20.697Z,100320.47
2022-10-14T15:49:50.052Z,100438.75
2022-10-14T15:52:19.354Z,100423.06
2022-10-14T15:54:50.941Z,100390.72
2022-10-14T15:57:17.636Z,100380.25
2022-10-14T15:59:47.807Z,100294.50
2022-10-14T16:02:22.577Z,100443.38
2022-10-14T16:05:18.348Z,100224.47
2022-10-14T16:07:40.086Z,100352.34
2022-10-14T16:10:08.001Z,100391.78
2022-10-14T16:12:39.703Z,100338.34
2022-10-14T16:15:43.976Z,100454.03
2022-10-14T16:18:10.691Z,100457.56
2022-10-14T16:20:37.860Z,100388.28
2022-10-14T16:23:08.071Z,100467.16
2022-10-14T16:25:39.996Z,100439.09
2022-10-14T16:28:10.273Z,100462.75
2022-10-14T16:30:44.005Z,100470.59
2022-10-14T16:35:43.571Z,100452.00
2022-10-14T16:38:13.190Z,100466.88
2022-10-14T16:40:44.698Z,100409.78
2022-10-14T16:43:12.970Z,100398.38
2022-10-14T16:45:42.070Z,100480.00
2022-10-14T16:48:08.786Z,100417.72
2022-10-14T16:50:40.407Z,100480.88
2022-10-14T16:53:28.110Z,100341.31
2022-10-14T16:55:57.396Z,100400.16
2022-10-14T16:58:27.756Z,100480.03
2022-10-14T17:00:54.956Z,100475.63
2022-10-14T17:03:21.830Z,100378.19
2022-10-14T17:05:58.974Z,100414.97
2022-10-14T17:08:28.006Z,100411.25
2022-10-14T17:10:58.892Z,100480.53
2022-10-14T17:13:25.733Z,100439.22
2022-10-14T17:16:04.096Z,100481.41
2022-10-14T17:18:34.682Z,100474.31
2022-10-14T17:21:02.650Z,100443.56
2022-10-14T17:23:32.018Z,100276.78
2022-10-14T17:26:02.164Z,100480.47
2022-10-14T17:28:30.091Z,100483.97
2022-10-14T17:30:57.814Z,100489.22
2022-10-14T17:33:26.158Z,100467.25
2022-10-14T17:35:57.381Z,100365.38
2022-10-14T17:38:27.805Z,100396.16
2022-10-14T17:41:09.033Z,100360.06
2022-10-14T17:43:39.422Z,100450.50
2022-10-14T17:48:42.568Z,100486.31
2022-10-14T17:51:16.402Z,100498.41
2022-10-14T17:53:45.856Z,100443.81
2022-10-14T17:56:17.527Z,100475.22
2022-10-14T17:58:44.102Z,100493.59
2022-10-14T18:01:15.510Z,100497.88
2022-10-14T18:03:45.232Z,100491.81
2022-10-14T18:06:15.833Z,100360.78
2022-10-14T18:08:44.089Z,100464.44
2022-10-14T18:11:12.396Z,100494.34
2022-10-14T18:13:41.832Z,100494.31
2022-10-14T18:16:14.388Z,100468.84
2022-10-14T18:18:43.709Z,100486.44
2022-10-14T18:21:10.310Z,100492.56
2022-10-14T18:23:40.530Z,100400.13
2022-10-14T18:26:13.478Z,100427.34
2022-10-14T18:28:42.639Z,100504.59
2022-10-14T18:31:12.504Z,100497.59
2022-10-14T18:33:40.184Z,100501.97
2022-10-14T18:36:08.173Z,100479.06
2022-10-14T18:38:37.536Z,100460.53
2022-10-14T18:41:10.215Z,100498.38
2022-10-14T18:43:37.211Z,100460.44
2022-10-14T18:46:13.164Z,100425.28
2022-10-14T18:48:44.719Z,100422.50
2022-10-14T18:51:12.025Z,100498.03
2022-10-14T18:53:43.555Z,100500.66
2022-10-14T18:56:15.327Z,100498.03
2022-10-14T18:59:07.135Z,100504.00
2022-10-14T19:01:37.194Z,100511.81
2022-10-14T19:04:07.403Z,100383.34
2022-10-14T19:06:34.797Z,100384.13
2022-10-14T19:09:01.914Z,100444.84
2022-10-14T19:11:32.267Z,100508.88
2022-10-14T19:14:00.368Z,100513.22
2022-10-14T19:16:34.392Z,100520.09
2022-10-14T19:19:08.132Z,100516.63
2022-10-14T19:21:35.043Z,100487.50
2022-10-14T19:24:04.527Z,100516.34
2022-10-14T19:26:36.169Z,100517.25
2022-10-14T19:29:06.470Z,100460.06
2022-10-14T19:31:36.247Z,100439.78
2022-10-14T19:34:06.226Z,100520.72
2022-10-14T19:36:37.948Z,100522.41
2022-10-14T19:39:12.587Z,100472.13
2022-10-14T19:41:49.901Z,100405.25
2022-10-14T19:46:57.891Z,100524.81
2022-10-14T19:49:24.600Z,100489.56
2022-10-14T19:51:51.623Z,100416.47
2022-10-14T19:54:18.262Z,100403.28
2022-10-14T19:56:44.964Z,100506.16
2022-10-14T19:59:13.621Z,100492.97
2022-10-14T20:01:40.567Z,100475.09
2022-10-14T20:04:07.506Z,100521.81
2022-10-14T20:06:38.502Z,100435.47
2022-10-14T20:09:06.243Z,100528.75
2022-10-14T20:11:33.367Z,100502.31
2022-10-14T20:14:02.351Z,100473.22
2022-10-14T20:16:29.103Z,100524.31
2022-10-14T20:18:57.830Z,100530.16
2022-10-14T20:21:24.569Z,100453.41
2022-10-14T20:23:51.318Z,100478.88
2022-10-14T20:26:22.036Z,100393.50
2022-10-14T20:28:52.128Z,100487.81
2022-10-14T20:31:21.879Z,100529.13
2022-10-14T20:33:49.204Z,100353.78
2022-10-14T20:36:18.134Z,100525.56
2022-10-14T20:38:44.935Z,100497.44
2022-10-14T20:41:23.495Z,100442.00
2022-10-14T20:43:50.741Z,100429.66
2022-10-14T20:46:17.841Z,100501.81
2022-10-14T20:48:44.792Z,100523.81
2022-10-14T20:51:16.411Z,100522.09
2022-10-14T20:53:45.210Z,100516.88
2022-10-14T20:56:14.490Z,100523.91
2022-10-14T20:58:43.611Z,100402.59
2022-10-14T21:01:15.503Z,100513.56
2022-10-14T21:03:50.401Z,100531.91
2022-10-14T21:06:22.352Z,100440.38
2022-10-14T21:08:52.481Z,100514.38
2022-10-14T21:11:23.493Z,100411.41
2022-10-14T21:13:59.952Z,100403.59
2022-10-14T21:16:39.890Z,100519.72
2022-10-14T21:19:08.726Z,100530.91
2022-10-14T21:21:38.331Z,100470.91
2022-10-14T21:24:08.823Z,100404.22
2022-10-14T21:26:35.678Z,100488.75
2022-10-14T21:29:04.613Z,100518.66
2022-10-14T21:31:32.787Z,100510.84
2022-10-14T21:34:06.080Z,100425.47
2022-10-14T21:36:38.694Z,100523.06
2022-10-14T21:39:26.208Z,100512.56
2022-10-14T21:41:56.063Z,100513.41
2022-10-14T21:44:22.960Z,100332.31
2022-10-14T21:46:54.836Z,100363.09
2022-10-14T21:49:23.735Z,100476.63
2022-10-14T21:51:50.438Z,100424.72
2022-10-14T21:54:21.793Z,100496.91
2022-10-14T21:56:48.514Z,100394.00
2022-10-14T21:59:15.372Z,100460.97
2022-10-14T22:01:42.144Z,100493.50
2022-10-14T22:04:10.223Z,100474.16
2022-10-14T22:06:44.795Z,100487.38
2022-10-14T22:09:16.093Z,100395.81
2022-10-14T22:11:45.421Z,100487.31
2022-10-14T22:14:19.063Z,100482.84
2022-10-14T22:16:46.725Z,100487.09
2022-10-14T22:19:18.174Z,100482.53
2022-10-14T22:21:47.435Z,100409.31
2022-10-14T22:24:14.527Z,100489.25
2022-10-14T22:26:43.179Z,100482.13
2022-10-14T22:29:15.302Z,100462.59
2022-10-14T22:31:46.348Z,100457.38
2022-10-14T22:34:15.418Z,100488.03
2022-10-14T22:36:44.943Z,100466.75
2022-10-14T22:39:18.604Z,100482.66
2022-10-14T22:41:45.277Z,100426.00
2022-10-14T22:44:12.017Z,100373.72
2022-10-14T22:46:41.507Z,100496.19
2022-10-14T22:49:10.855Z,100492.63
2022-10-14T22:51:40.439Z,100490.81
2022-10-14T22:54:07.690Z,100462.63
2022-10-14T22:56:40.555Z,100401.75
2022-10-14T22:59:11.437Z,100306.66
2022-10-14T23:01:41.866Z,100482.84
2022-10-14T23:04:11.725Z,100483.59
2022-10-14T23:06:47.099Z,100485.31
2022-10-14T23:09:19.179Z,100383.84
2022-10-14T23:11:45.834Z,100498.25
2022-10-14T23:14:12.497Z,100392.66
2022-10-14T23:16:41.521Z,100365.16
2022-10-14T23:19:08.208Z,100499.91
2022-10-14T23:21:41.164Z,100486.41
2022-10-14T23:24:10.426Z,100254.88
2022-10-14T23:26:37.261Z,100398.59
2022-10-14T23:29:08.912Z,100441.59
2022-10-14T23:31:39.176Z,100489.09
2022-10-14T23:34:08.214Z,100444.91
2022-10-14T23:36:34.907Z,100418.25
2022-10-14T23:39:01.619Z,100499.00
2022-10-14T23:41:28.907Z,100503.47
2022-10-14T23:43:57.874Z,100426.78
2022-10-14T23:46:24.678Z,100442.63
2022-10-14T23:49:01.226Z,100364.91
2022-10-14T23:51:36.123Z,100165.97
2022-10-14T23:54:03.113Z,100509.34
2022-10-14T23:56:29.988Z,100531.88
2022-10-14T23:59:01.000Z,100405.91
